CYPR/YPR METAR and TAF weather

Enter ICAO airport designator
Station Type Date Time Source
CYPR METAR 2020/12/06 01:18 UTC NOAA

CYPR 060118Z AUTO 14015G25KT 120V190 5SM -RA BR SCT021 SCT027 OVC033 10/08 A2963 RMK SLP035


Station Type Date Time Source
CYPR Decoded METAR 2020/12/06 01:18 UTC NOAA

Prince Rupert, B. C., Canada (CYPR) 54-18N 130-26W 34M
Dec 05, 2020 - 08:18 PM EST / 2020.12.06 0118 UTC
Wind: from the SE (140 degrees) at 17 MPH (15 KT) gusting to 29 MPH (25 KT) (direction variable):0
Visibility: 5 mile(s):0
Sky conditions: overcast
Weather: light rain; mist
Temperature: 50 F (10 C)
Dew Point: 46 F (8 C)
Relative Humidity: 87%
Pressure (altimeter): 29.63 in. Hg (1003 hPa)
ob: CYPR 060118Z AUTO 14015G25KT 120V190 5SM -RA BR SCT021 SCT027 OVC033 10/08 A2963 RMK SLP035
cycle: 1

Station Type Date Time Source
CYPR TAF 2020/12/06 01:39 UTC NOAA

TAF CYPR 060038Z 0601/0613 14015G25KT P6SM -RA SCT020 OVC040
TEMPO 0601/0610 3SM SHRA BR OVC020
FM061000 14015G25KT P6SM BKN040
TEMPO 0610/0613 P6SM -SHRA BKN020
RMK FCST BASED ON AUTO OBS. NXT FCST BY 060700Z

Example: see airport list